Terminal Aerodrome Forecast
Issued by NWS

Home | Current Version | Previous Version | Text Only | Print | Product List | Glossary On
Versions: 1 2 3 4 5 6 7 8 9 10 11 12 13 14 15 16
273
FTUS42 KTBW 132321
TAFPGD
TAF
KPGD 132321Z 1400/1424 33007KT P6SM SKC
     FM140300 01008KT P6SM SKC
     FM141400 06010KT P6SM FEW250
     FM142100 09012G17KT P6SM SCT035
     FM142300 08009KT P6SM FEW035 SCT250=

USA.gov is the U.S. government's official web portal to all federal, state and local government web resources and services.